Montmartre, Canada
Current Conditions -  °F | °C
As of 7:00 AM on Thursday 30 Oct 2014 (Local Time) from CYQR Reporting Station
Overcast Overcast  
Wind Chill: 25°   Ceiling: 700
Heat Index: 32°   Visibility: 15mi
Dew Point: 30°   Wind: 8mph
Humidity: 93%   Direction: 360°N
Pressure: 30.34"   Gusts: NA
Location:  50.22°N, 103.45°W
Report Text: CYQR 301300Z 36007KT 15SM OVC007 00/M01 A3034 RMK SC8 SLP303
Loading
Personal Weather Stations






























Interactive Weather Map
Tropical Storm Tracking
New forecast layout! Learn more

10-Day Weather Forecast

Advertisements
Track Severe Weather on mobile